Time;durP1;ratioP1;P1;durP2;ratioP2;P2;SDS_P1;SDS_P2;PMS_P1;PMS_P2;Temp;Humidity;BMP_temperature;BMP_pressure;BME280_temperature;BME280_humidity;BME280_pressure;Samples;Min_cycle;Max_cycle;Signal;HPM_P1;HPM_P2
2022/08/25 00:01:00;;;;;;;0.60;0.60;;;20.70;99.90;;;;;;5094306;28;20455;-83
2022/08/25 00:03:27;;;;;;;1.00;0.90;;;20.70;99.90;;;;;;5094473;28;20440;-83
2022/08/25 00:05:54;;;;;;;0.60;0.60;;;20.70;99.90;;;;;;5094063;28;21021;-83
2022/08/25 00:08:20;;;;;;;1.23;0.70;;;20.70;99.90;;;;;;5094376;28;20451;-83
2022/08/25 00:10:47;;;;;;;0.47;0.47;;;20.70;99.90;;;;;;5094530;28;20439;-83
2022/08/25 00:13:17;;;;;;;0.60;0.60;;;20.60;99.90;;;;;;5093987;28;20452;-83
2022/08/25 00:15:45;;;;;;;0.77;0.77;;;20.60;99.90;;;;;;5094239;28;20451;-83
2022/08/25 00:18:12;;;;;;;0.77;0.77;;;20.60;99.90;;;;;;5094372;28;20546;-83
2022/08/25 00:20:38;;;;;;;1.43;0.90;;;20.60;99.90;;;;;;5094119;28;20459;-83
2022/08/25 00:23:05;;;;;;;1.00;0.80;;;20.60;99.90;;;;;;5093984;28;20513;-83
2022/08/25 00:25:32;;;;;;;0.73;0.70;;;20.60;99.90;;;;;;5093628;28;20499;-83
2022/08/25 00:27:59;;;;;;;0.70;0.70;;;20.60;99.90;;;;;;5093728;28;20939;-83
2022/08/25 00:30:26;;;;;;;0.43;0.43;;;20.60;99.90;;;;;;5093661;28;20452;-83
2022/08/25 00:32:54;;;;;;;1.90;0.80;;;20.50;99.90;;;;;;5093578;28;20472;-83
2022/08/25 00:35:21;;;;;;;3.03;0.90;;;20.50;99.90;;;;;;5093896;28;20460;-83
2022/08/25 00:37:48;;;;;;;0.90;0.90;;;20.50;99.90;;;;;;5093598;28;20487;-83
2022/08/25 00:40:15;;;;;;;1.27;0.90;;;20.50;99.90;;;;;;5093551;28;20985;-83
2022/08/25 00:42:42;;;;;;;0.70;0.50;;;20.40;99.90;;;;;;5093697;28;20464;-83
2022/08/25 00:45:10;;;;;;;0.90;0.80;;;20.40;99.90;;;;;;5093395;28;20472;-83
2022/08/25 00:47:37;;;;;;;0.60;0.60;;;20.40;99.90;;;;;;5094008;28;20450;-82
2022/08/25 00:50:07;;;;;;;0.80;0.63;;;20.30;99.90;;;;;;5093639;28;20463;-82
2022/08/25 00:52:38;;;;;;;0.77;0.70;;;20.30;99.90;;;;;;5093305;28;20464;-83
2022/08/25 00:55:08;;;;;;;0.83;0.60;;;20.30;99.90;;;;;;5093667;28;20424;-83
2022/08/25 00:57:39;;;;;;;1.10;0.83;;;20.20;99.90;;;;;;5093698;28;20486;-83
2022/08/25 01:00:11;;;;;;;0.80;0.80;;;20.20;99.90;;;;;;5093569;28;20444;-83
2022/08/25 01:02:38;;;;;;;0.60;0.50;;;20.10;99.90;;;;;;5093528;28;20463;-83
2022/08/25 01:05:07;;;;;;;3.90;0.50;;;20.10;99.90;;;;;;5093102;28;20932;-82
2022/08/25 01:07:34;;;;;;;0.70;0.70;;;20.10;99.90;;;;;;5093512;28;20444;-83
2022/08/25 01:10:01;;;;;;;0.70;0.70;;;20.10;99.90;;;;;;5093189;28;20935;-83
2022/08/25 01:12:28;;;;;;;2.30;0.80;;;20.10;99.90;;;;;;5093376;28;20464;-83
2022/08/25 01:14:57;;;;;;;0.60;0.60;;;20.10;99.90;;;;;;5093437;28;20448;-83
2022/08/25 01:17:26;;;;;;;1.60;0.60;;;20.00;99.90;;;;;;5093405;28;20811;-82
2022/08/25 01:19:54;;;;;;;1.03;0.73;;;20.00;99.90;;;;;;5093355;28;20448;-82
2022/08/25 01:22:25;;;;;;;0.60;0.60;;;20.00;99.90;;;;;;5093294;28;20464;-82
2022/08/25 01:24:59;;;;;;;1.00;0.60;;;19.90;99.90;;;;;;5093259;28;20582;-83
2022/08/25 01:27:26;;;;;;;0.80;0.67;;;19.90;99.90;;;;;;5093382;28;20416;-83
2022/08/25 01:29:53;;;;;;;0.73;0.53;;;19.90;99.90;;;;;;5093296;28;20448;-83
2022/08/25 01:32:19;;;;;;;0.90;0.60;;;19.90;99.90;;;;;;5092895;28;20474;-82
2022/08/25 01:34:46;;;;;;;0.60;0.60;;;19.90;99.90;;;;;;5093440;28;20448;-83
2022/08/25 01:37:15;;;;;;;0.70;0.63;;;19.90;99.90;;;;;;5092992;28;20924;-83
2022/08/25 01:39:43;;;;;;;1.00;0.80;;;19.90;99.90;;;;;;5093215;28;20916;-82
2022/08/25 01:42:37;;;;;;;0.80;0.70;;;19.90;99.90;;;;;;5093126;28;20534;-83
2022/08/25 01:45:05;;;;;;;1.50;0.60;;;19.90;99.90;;;;;;5093179;28;20443;-83
2022/08/25 01:47:32;;;;;;;0.87;0.70;;;19.90;99.90;;;;;;5093315;28;20509;-83
2022/08/25 01:49:59;;;;;;;1.07;0.50;;;19.90;99.90;;;;;;5095485;28;20455;-82
2022/08/25 01:52:32;;;;;;;1.80;0.70;;;19.80;99.90;;;;;;5096932;28;20463;-83
2022/08/25 01:55:00;;;;;;;0.53;0.53;;;19.80;99.90;;;;;;5097098;28;20455;-82
2022/08/25 01:57:30;;;;;;;0.80;0.80;;;19.80;99.90;;;;;;5096639;28;20792;-83
2022/08/25 01:59:57;;;;;;;1.80;0.70;;;19.70;99.90;;;;;;5096605;28;20474;-83
2022/08/25 02:02:24;;;;;;;1.13;0.70;;;19.70;99.90;;;;;;5096738;28;20474;-82
2022/08/25 02:04:50;;;;;;;1.10;0.73;;;19.60;99.90;;;;;;5096755;28;20448;-83
2022/08/25 02:07:17;;;;;;;0.70;0.60;;;19.60;99.90;;;;;;5096641;28;20480;-83
2022/08/25 02:09:44;;;;;;;1.20;0.80;;;19.60;99.90;;;;;;5096683;28;20447;-83
2022/08/25 02:12:12;;;;;;;0.70;0.60;;;19.60;99.90;;;;;;5096534;28;20472;-83
2022/08/25 02:14:39;;;;;;;1.30;0.60;;;19.50;99.90;;;;;;5096566;28;20487;-83
2022/08/25 02:17:06;;;;;;;0.63;0.63;;;19.50;99.90;;;;;;5096533;28;20829;-83
2022/08/25 02:19:33;;;;;;;1.70;0.77;;;19.40;99.90;;;;;;5096143;28;20448;-83
2022/08/25 02:22:00;;;;;;;0.50;0.50;;;19.40;99.90;;;;;;5096359;28;20474;-83
2022/08/25 02:24:28;;;;;;;0.43;0.43;;;19.40;99.90;;;;;;5095950;28;21005;-83
2022/08/25 02:26:55;;;;;;;0.80;0.80;;;19.40;99.90;;;;;;5096267;28;20488;-83
2022/08/25 02:29:23;;;;;;;0.50;0.50;;;19.30;99.90;;;;;;5096306;28;20875;-83
2022/08/25 02:31:49;;;;;;;1.23;0.63;;;19.30;99.90;;;;;;5095898;28;20490;-82
2022/08/25 02:34:16;;;;;;;1.40;1.17;;;19.20;99.90;;;;;;5096238;28;20886;-83
2022/08/25 02:36:43;;;;;;;0.80;0.70;;;19.20;99.90;;;;;;5096165;28;20451;-83
2022/08/25 02:39:11;;;;;;;1.90;0.90;;;19.10;99.90;;;;;;5096090;28;20444;-83
2022/08/25 02:41:38;;;;;;;3.27;0.80;;;19.10;99.90;;;;;;5096054;28;20479;-83
2022/08/25 02:44:07;;;;;;;0.50;0.50;;;19.10;99.90;;;;;;5096046;28;20447;-83
2022/08/25 02:46:35;;;;;;;0.70;0.70;;;19.10;99.90;;;;;;5095902;28;20490;-83
2022/08/25 02:49:02;;;;;;;1.00;0.80;;;19.00;99.90;;;;;;5095925;28;20447;-83
2022/08/25 02:51:30;;;;;;;0.77;0.63;;;19.00;99.90;;;;;;5095803;28;20733;-83
2022/08/25 02:53:58;;;;;;;1.13;1.00;;;19.00;99.90;;;;;;5095547;28;20529;-83
2022/08/25 02:56:26;;;;;;;0.80;0.70;;;18.90;99.90;;;;;;5095808;28;20455;-83
2022/08/25 02:58:52;;;;;;;1.23;0.80;;;18.80;99.90;;;;;;5095434;28;20962;-82
2022/08/25 03:01:20;;;;;;;0.90;0.57;;;18.80;99.90;;;;;;5094152;28;21025;-82
2022/08/25 03:03:51;;;;;;;0.87;0.70;;;18.70;99.90;;;;;;5095641;28;20444;-82
2022/08/25 03:06:21;;;;;;;1.87;0.90;;;18.70;99.90;;;;;;5095566;28;20472;-82
2022/08/25 03:08:48;;;;;;;1.33;0.60;;;18.70;99.90;;;;;;5095640;28;20478;-82
2022/08/25 03:11:16;;;;;;;0.60;0.60;;;18.70;99.90;;;;;;5095549;28;20483;-83
2022/08/25 03:13:43;;;;;;;1.37;0.70;;;18.60;99.90;;;;;;5095455;28;20452;-83
2022/08/25 03:16:10;;;;;;;1.33;0.60;;;18.60;99.90;;;;;;5095105;28;20447;-83
2022/08/25 03:18:37;;;;;;;1.00;0.57;;;18.60;99.90;;;;;;5095379;28;20447;-82
2022/08/25 03:21:05;;;;;;;0.70;0.60;;;18.50;99.90;;;;;;5095475;28;20443;-82
2022/08/25 03:23:32;;;;;;;1.00;0.60;;;18.50;99.90;;;;;;5095267;28;20436;-82
2022/08/25 03:28:43;;;;;;;0.80;0.80;;;18.50;99.90;;;;;;5095273;28;20399;-82
2022/08/25 03:31:10;;;;;;;1.00;0.60;;;18.40;99.90;;;;;;5094732;28;20482;-82
2022/08/25 03:33:38;;;;;;;2.50;0.90;;;18.40;99.90;;;;;;5095048;28;20455;-82
2022/08/25 03:36:08;;;;;;;1.47;0.90;;;18.40;99.90;;;;;;5095006;28;20444;-82
2022/08/25 03:38:37;;;;;;;0.70;0.60;;;18.40;99.90;;;;;;5094946;28;20452;-83
2022/08/25 03:41:13;;;;;;;0.60;0.53;;;18.40;99.90;;;;;;5094789;28;20947;-82
2022/08/25 03:43:40;;;;;;;1.00;0.90;;;18.40;99.90;;;;;;5094877;28;20435;-82
2022/08/25 03:46:07;;;;;;;0.40;0.40;;;18.30;99.90;;;;;;5094904;28;20487;-82
2022/08/25 03:48:33;;;;;;;1.93;1.00;;;18.30;99.90;;;;;;5094499;28;20943;-82
2022/08/25 03:51:00;;;;;;;0.87;0.60;;;18.30;99.90;;;;;;5094618;28;20440;-82
2022/08/25 03:53:28;;;;;;;0.50;0.50;;;18.30;99.90;;;;;;5094702;28;20446;-82
2022/08/25 03:55:56;;;;;;;3.37;0.80;;;18.30;99.90;;;;;;5094331;28;20455;-82
2022/08/25 03:58:23;;;;;;;0.80;0.60;;;18.30;99.90;;;;;;5094575;28;20868;-82
2022/08/25 04:00:49;;;;;;;2.00;1.83;;;18.30;99.90;;;;;;5094428;28;20443;-82
2022/08/25 04:03:17;;;;;;;1.47;0.80;;;18.20;99.90;;;;;;5094512;28;20455;-82
2022/08/25 04:05:44;;;;;;;1.00;0.70;;;18.20;99.90;;;;;;5094434;28;20455;-82
2022/08/25 04:08:11;;;;;;;0.70;0.60;;;18.20;99.90;;;;;;5094433;28;20535;-82
2022/08/25 04:10:42;;;;;;;1.00;0.90;;;18.10;99.90;;;;;;5094389;28;20467;-82
2022/08/25 04:13:10;;;;;;;0.90;0.90;;;18.10;99.90;;;;;;5093986;28;20472;-82
2022/08/25 04:15:41;;;;;;;1.33;1.23;;;18.10;99.90;;;;;;5093921;28;20452;-82
2022/08/25 04:18:10;;;;;;;0.90;0.90;;;18.10;99.90;;;;;;5094310;28;20431;-82
2022/08/25 04:20:37;;;;;;;0.77;0.77;;;18.10;99.90;;;;;;5094322;28;20819;-82
2022/08/25 04:23:03;;;;;;;1.03;0.60;;;18.10;99.90;;;;;;5094228;28;20471;-82
2022/08/25 04:25:30;;;;;;;1.10;0.97;;;18.10;99.90;;;;;;5093785;28;20483;-83
2022/08/25 04:27:58;;;;;;;1.10;0.70;;;18.10;99.90;;;;;;5093990;28;20507;-83
2022/08/25 04:30:25;;;;;;;1.87;0.80;;;18.10;99.90;;;;;;5094003;28;20444;-83
2022/08/25 04:32:52;;;;;;;2.70;0.70;;;18.10;99.90;;;;;;5093768;28;21027;-82
2022/08/25 04:35:18;;;;;;;1.57;0.57;;;18.20;99.90;;;;;;5093956;28;20522;-82
2022/08/25 04:37:47;;;;;;;1.67;1.57;;;18.10;99.90;;;;;;5093907;28;20451;-83
2022/08/25 04:40:14;;;;;;;0.60;0.60;;;18.10;99.90;;;;;;5093820;28;20461;-82
2022/08/25 04:42:41;;;;;;;0.60;0.60;;;18.10;99.90;;;;;;5093796;28;20472;-82
2022/08/25 04:45:09;;;;;;;2.03;0.80;;;18.10;99.90;;;;;;5093776;28;20452;-82
2022/08/25 04:47:39;;;;;;;1.37;1.00;;;18.00;99.90;;;;;;5093685;28;20479;-82
2022/08/25 04:50:07;;;;;;;3.30;0.67;;;18.00;99.90;;;;;;5093709;28;20440;-82
2022/08/25 04:52:34;;;;;;;0.80;0.63;;;18.00;99.90;;;;;;5093660;28;20869;-82
2022/08/25 04:55:00;;;;;;;1.00;0.50;;;18.00;99.90;;;;;;5093659;28;20444;-82
2022/08/25 04:57:27;;;;;;;1.90;0.80;;;17.90;99.90;;;;;;5093655;28;20467;-82
2022/08/25 04:59:54;;;;;;;1.67;0.90;;;18.00;99.90;;;;;;5093281;28;20448;-82
2022/08/25 05:02:24;;;;;;;0.63;0.60;;;18.00;99.90;;;;;;5093475;28;20464;-82
2022/08/25 05:04:51;;;;;;;0.70;0.70;;;18.00;99.90;;;;;;5093538;28;20541;-83
2022/08/25 05:07:17;;;;;;;2.00;1.40;;;18.00;99.90;;;;;;5093150;28;21068;-82
2022/08/25 05:09:44;;;;;;;1.77;0.70;;;18.00;99.90;;;;;;5093483;28;20424;-82
2022/08/25 05:12:11;;;;;;;1.27;0.60;;;18.00;99.90;;;;;;5093094;28;20463;-82
2022/08/25 05:14:38;;;;;;;0.80;0.50;;;18.00;99.90;;;;;;5093123;28;20455;-83
2022/08/25 05:17:05;;;;;;;1.47;0.60;;;18.10;99.90;;;;;;5093531;28;20444;-82
2022/08/25 05:19:34;;;;;;;1.43;0.80;;;18.10;99.90;;;;;;5093373;28;20466;-83
2022/08/25 05:22:01;;;;;;;0.80;0.80;;;18.00;99.90;;;;;;5093262;28;20550;-87
2022/08/25 05:24:28;;;;;;;1.03;1.03;;;18.00;99.90;;;;;;5096398;28;20573;-82
2022/08/25 05:26:55;;;;;;;3.27;1.30;;;18.10;99.90;;;;;;5097436;28;20471;-82
2022/08/25 05:29:22;;;;;;;0.93;0.83;;;18.10;99.90;;;;;;5097472;28;20454;-82
2022/08/25 05:31:49;;;;;;;1.33;0.77;;;18.10;99.90;;;;;;5097089;28;20452;-82
2022/08/25 05:34:17;;;;;;;1.00;0.90;;;18.10;99.90;;;;;;5097152;28;20447;-83
2022/08/25 05:36:45;;;;;;;0.57;0.57;;;18.10;99.90;;;;;;5097036;28;20454;-82
2022/08/25 05:39:12;;;;;;;1.47;1.17;;;18.20;99.90;;;;;;5097280;28;20455;-82
2022/08/25 05:41:38;;;;;;;1.27;1.17;;;18.20;99.90;;;;;;5097074;28;20460;-82
2022/08/25 05:44:06;;;;;;;0.87;0.87;;;18.20;99.90;;;;;;5097211;28;20447;-82
2022/08/25 05:46:33;;;;;;;1.40;0.90;;;18.30;99.90;;;;;;5097060;28;20858;-82
2022/08/25 05:49:00;;;;;;;1.63;1.30;;;18.40;99.90;;;;;;5097350;28;20440;-83
2022/08/25 05:51:27;;;;;;;3.00;1.37;;;18.50;99.90;;;;;;5096672;28;20478;-82
2022/08/25 05:53:55;;;;;;;1.10;0.93;;;18.70;99.90;;;;;;5096987;28;20534;-83
2022/08/25 05:56:22;;;;;;;1.30;1.13;;;18.80;99.90;;;;;;5096669;28;20935;-82
2022/08/25 05:58:49;;;;;;;1.23;1.07;;;18.90;99.90;;;;;;5096905;28;20451;-82
2022/08/25 06:04:06;;;;;;;1.40;0.80;;;19.60;99.90;;;;;;5096884;28;20410;-83
2022/08/25 06:06:33;;;;;;;2.90;1.00;;;20.00;99.90;;;;;;5096680;28;20454;-83
2022/08/25 06:09:02;;;;;;;5.00;1.30;;;20.40;99.90;;;;;;5096475;28;20444;-83
2022/08/25 06:11:29;;;;;;;0.90;0.80;;;20.50;99.90;;;;;;5096611;28;20518;-82
2022/08/25 06:13:56;;;;;;;2.33;0.80;;;20.60;99.90;;;;;;5096222;28;20481;-83
2022/08/25 06:16:23;;;;;;;1.13;1.10;;;20.60;99.90;;;;;;5096826;28;20497;-82
2022/08/25 06:18:49;;;;;;;2.07;1.30;;;20.70;99.90;;;;;;5096236;28;20931;-82
2022/08/25 06:21:17;;;;;;;1.80;1.10;;;20.70;99.90;;;;;;5096443;28;20460;-82
2022/08/25 06:23:44;;;;;;;1.00;0.90;;;20.70;99.90;;;;;;5096073;28;20883;-82
2022/08/25 06:26:13;;;;;;;1.70;0.97;;;20.80;99.90;;;;;;5096008;28;20475;-82
2022/08/25 06:28:40;;;;;;;1.37;1.17;;;20.90;99.90;;;;;;5096290;28;20475;-82
2022/08/25 06:31:07;;;;;;;1.07;0.97;;;21.00;99.90;;;;;;5096242;28;20456;-82
2022/08/25 06:33:34;;;;;;;1.63;1.10;;;21.20;99.90;;;;;;5096245;28;20443;-82
2022/08/25 06:36:01;;;;;;;1.70;1.33;;;21.30;99.90;;;;;;5095853;28;20455;-82
2022/08/25 06:38:28;;;;;;;1.43;1.33;;;21.40;99.90;;;;;;5095862;28;20978;-82
2022/08/25 06:40:55;;;;;;;1.63;0.97;;;21.60;99.90;;;;;;5095941;28;20950;-83
2022/08/25 06:43:24;;;;;;;2.13;0.90;;;21.70;99.90;;;;;;5095800;28;20482;-82
2022/08/25 06:45:51;;;;;;;1.47;0.90;;;21.80;99.90;;;;;;5096050;28;20446;-83
2022/08/25 06:48:17;;;;;;;1.77;1.10;;;21.90;99.90;;;;;;5095919;28;20483;-82
2022/08/25 06:50:44;;;;;;;3.53;1.43;;;22.10;99.90;;;;;;5096604;28;20459;-82
2022/08/25 06:53:11;;;;;;;2.53;1.20;;;22.10;99.90;;;;;;5095836;28;20471;-82
2022/08/25 06:55:38;;;;;;;1.93;1.10;;;22.10;99.90;;;;;;5095503;28;20444;-82
2022/08/25 06:58:05;;;;;;;0.90;0.80;;;22.20;99.90;;;;;;5095520;28;20454;-83
2022/08/25 07:00:33;;;;;;;1.70;0.70;;;22.30;99.90;;;;;;5095402;28;20950;-82
2022/08/25 07:03:00;;;;;;;1.63;0.80;;;22.40;99.90;;;;;;5095652;28;20467;-82
2022/08/25 07:05:27;;;;;;;1.30;0.90;;;22.50;99.90;;;;;;5095570;28;20534;-83
2022/08/25 07:07:54;;;;;;;3.07;1.27;;;22.60;99.90;;;;;;5095529;28;20482;-81
2022/08/25 07:10:21;;;;;;;1.63;1.10;;;22.80;99.90;;;;;;5095758;28;20443;-82
2022/08/25 07:12:48;;;;;;;1.80;1.33;;;22.80;99.90;;;;;;5095148;28;21001;-82
2022/08/25 07:15:15;;;;;;;2.40;1.27;;;22.80;99.90;;;;;;5095422;28;20449;-82
2022/08/25 07:17:43;;;;;;;1.67;1.00;;;22.80;99.90;;;;;;5095692;28;20440;-82
2022/08/25 07:20:10;;;;;;;2.20;1.60;;;23.00;99.90;;;;;;5095595;28;20447;-82
2022/08/25 07:22:37;;;;;;;1.40;1.20;;;23.00;99.90;;;;;;5095225;28;20474;-81
2022/08/25 07:25:04;;;;;;;1.17;0.90;;;23.10;99.90;;;;;;5095044;28;20490;-83
2022/08/25 07:27:31;;;;;;;0.90;0.90;;;23.30;99.90;;;;;;5094914;28;20482;-83
2022/08/25 07:29:58;;;;;;;2.17;1.27;;;23.50;99.90;;;;;;5095177;28;20452;-83
2022/08/25 07:32:25;;;;;;;2.00;1.37;;;23.70;99.90;;;;;;5095133;28;20221;-82
2022/08/25 07:37:38;;;;;;;0.83;0.83;;;24.00;99.90;;;;;;5095060;28;20400;-82
2022/08/25 07:40:06;;;;;;;1.60;0.93;;;24.20;99.90;;;;;;5094843;28;20197;-83
2022/08/25 07:42:34;;;;;;;2.60;1.00;;;24.30;99.90;;;;;;5094863;28;20221;-82
2022/08/25 07:45:02;;;;;;;1.88;1.50;;;24.30;99.90;;;;;;5094591;28;20665;-82
2022/08/25 07:47:30;;;;;;;1.03;0.70;;;24.50;99.90;;;;;;5094397;28;20260;-82
2022/08/25 07:49:58;;;;;;;1.63;0.93;;;24.60;99.90;;;;;;5094798;28;20208;-85
2022/08/25 07:52:25;;;;;;;1.10;1.00;;;24.70;99.90;;;;;;5094718;28;20229;-83
2022/08/25 07:54:52;;;;;;;1.90;1.00;;;24.80;99.90;;;;;;5094717;28;20583;-82
2022/08/25 07:57:21;;;;;;;1.63;1.20;;;24.70;99.90;;;;;;5094683;28;20255;-83
2022/08/25 07:59:48;;;;;;;1.30;1.00;;;24.80;99.90;;;;;;5094584;28;20201;-82
2022/08/25 08:02:15;;;;;;;2.70;1.40;;;24.90;99.90;;;;;;5094515;28;20256;-83
2022/08/25 08:04:44;;;;;;;1.30;1.20;;;25.00;99.90;;;;;;5094522;28;20229;-82
2022/08/25 08:07:13;;;;;;;1.53;1.20;;;25.10;99.90;;;;;;5094440;28;20202;-84
2022/08/25 08:09:39;;;;;;;4.10;1.08;;;25.10;99.90;;;;;;5094192;28;20216;-83
2022/08/25 08:12:07;;;;;;;1.58;1.13;;;25.00;99.90;;;;;;5094219;28;20225;-82
2022/08/25 08:14:34;;;;;;;1.10;0.95;;;25.00;99.90;;;;;;5094243;28;20288;-83
2022/08/25 08:17:05;;;;;;;2.22;0.95;;;25.20;99.90;;;;;;5094431;28;20209;-82
2022/08/25 08:19:32;;;;;;;1.25;0.90;;;25.40;99.90;;;;;;5094292;28;20188;-82
2022/08/25 08:21:59;;;;;;;0.98;0.73;;;25.60;99.90;;;;;;5094177;28;20232;-82
2022/08/25 08:24:29;;;;;;;1.77;0.82;;;25.70;99.90;;;;;;5093892;28;20228;-82
2022/08/25 08:26:55;;;;;;;1.88;1.45;;;25.80;99.90;;;;;;5094207;28;20193;-82
2022/08/25 08:29:22;;;;;;;1.42;1.10;;;25.80;99.90;;;;;;5094008;28;20225;-83
2022/08/25 08:31:49;;;;;;;4.18;1.23;;;25.80;99.90;;;;;;5093927;28;20554;-83
2022/08/25 08:34:17;;;;;;;1.55;1.27;;;25.80;99.90;;;;;;5094118;28;20201;-83
2022/08/25 08:36:43;;;;;;;1.67;1.35;;;25.90;99.90;;;;;;5094000;28;20379;-83
2022/08/25 08:39:10;;;;;;;1.40;1.10;;;26.00;99.90;;;;;;5093928;28;20201;-83
2022/08/25 08:44:49;;;;;;;2.70;1.40;;;26.20;99.90;;;;;;5094113;28;20254;-84
2022/08/25 08:47:26;;;;;;;1.42;1.30;;;26.20;99.90;;;;;;5093496;28;20185;-83
2022/08/25 08:50:02;;;;;;;1.83;1.65;;;26.40;99.90;;;;;;5093469;28;20200;-82
2022/08/25 08:52:40;;;;;;;2.83;1.05;;;26.40;99.90;;;;;;5093694;28;20220;-83
2022/08/25 08:55:14;;;;;;;1.08;0.98;;;26.50;99.90;;;;;;5093718;28;20189;-83
2022/08/25 08:57:47;;;;;;;1.48;1.38;;;26.60;99.90;;;;;;5093888;28;20180;-83
2022/08/25 09:00:16;;;;;;;1.27;1.00;;;26.90;99.90;;;;;;5093513;28;20197;-83
2022/08/25 09:02:52;;;;;;;0.90;0.80;;;27.20;99.90;;;;;;5093547;28;20297;-83
2022/08/25 09:05:22;;;;;;;1.50;1.40;;;27.70;99.90;;;;;;5093635;28;20208;-84
2022/08/25 09:07:54;;;;;;;2.42;1.33;;;28.10;99.90;;;;;;5093495;28;20206;-82
2022/08/25 09:10:24;;;;;;;3.10;1.70;;;28.20;99.90;;;;;;5094547;28;20182;-82
2022/08/25 09:12:59;;;;;;;2.15;1.20;;;28.10;99.90;;;;;;5093419;28;20732;-83
2022/08/25 09:18:25;;;;;;;1.58;0.90;;;28.00;99.90;;;;;;5092955;28;20221;-82
2022/08/25 09:21:04;;;;;;;1.92;1.40;;;28.10;99.90;;;;;;5093390;28;20189;-84
2022/08/25 09:23:55;;;;;;;1.45;1.13;;;28.20;99.90;;;;;;5093498;28;20204;-82
2022/08/25 09:26:29;;;;;;;1.80;1.50;;;28.50;99.90;;;;;;5093229;28;20256;-83
2022/08/25 09:29:04;;;;;;;1.55;1.40;;;28.40;99.90;;;;;;5093318;28;20205;-82
2022/08/25 09:31:32;;;;;;;1.10;0.95;;;28.40;99.90;;;;;;5093314;28;20243;-83
2022/08/25 09:34:02;;;;;;;1.80;1.38;;;28.30;99.90;;;;;;5093512;28;20292;-83
2022/08/25 09:36:29;;;;;;;1.08;0.98;;;28.10;99.90;;;;;;5093337;28;20205;-82
2022/08/25 09:38:56;;;;;;;0.85;0.85;;;28.10;99.90;;;;;;5092883;28;20641;-82
2022/08/25 09:41:44;;;;;;;1.52;1.23;;;27.90;99.90;;;;;;5093215;28;20218;-83
2022/08/25 09:44:21;;;;;;;1.98;1.02;;;27.80;99.90;;;;;;5093517;28;20186;-83
2022/08/25 09:47:01;;;;;;;1.33;1.00;;;27.70;99.90;;;;;;5093219;28;20185;-83
2022/08/25 09:49:38;;;;;;;2.08;1.20;;;27.80;99.00;;;;;;5092817;28;20684;-83
2022/08/25 09:52:34;;;;;;;1.08;0.90;;;27.90;99.20;;;;;;5093059;28;20221;-83
2022/08/25 09:55:22;;;;;;;1.60;1.10;;;27.90;99.20;;;;;;5092863;28;20582;-82
2022/08/25 09:57:51;;;;;;;1.40;1.30;;;27.80;98.70;;;;;;5093170;28;20197;-83
2022/08/25 10:00:22;;;;;;;1.48;1.13;;;27.90;98.10;;;;;;5093341;28;20198;-83
2022/08/25 10:03:04;;;;;;;1.92;1.17;;;28.00;96.80;;;;;;5092969;28;20232;-82
2022/08/25 10:05:35;;;;;;;1.27;0.95;;;28.10;97.30;;;;;;5092833;28;20182;-82
2022/08/25 10:08:03;;;;;;;1.20;1.10;;;28.00;97.10;;;;;;5093015;28;20213;-86
2022/08/25 10:10:33;;;;;;;1.13;0.77;;;28.00;97.60;;;;;;5094531;28;20212;-85
2022/08/25 10:13:02;;;;;;;2.10;0.95;;;27.90;96.50;;;;;;5096605;28;20221;-84
2022/08/25 10:15:33;;;;;;;1.35;0.75;;;27.90;96.60;;;;;;5096555;28;20262;-84
2022/08/25 10:18:24;;;;;;;0.95;0.70;;;27.90;95.90;;;;;;5096355;28;20649;-85
2022/08/25 10:21:06;;;;;;;0.73;0.73;;;28.00;95.90;;;;;;5096505;28;20677;-83
2022/08/25 10:23:35;;;;;;;0.90;0.80;;;28.10;96.80;;;;;;5096274;28;20276;-85
2022/08/25 10:26:08;;;;;;;0.80;0.80;;;28.20;96.90;;;;;;5096002;28;20589;-85
2022/08/25 10:28:42;;;;;;;1.52;1.10;;;28.40;96.50;;;;;;5096371;28;20205;-84
2022/08/25 10:31:18;;;;;;;1.48;1.08;;;28.50;96.30;;;;;;5096156;28;20217;-84
2022/08/25 10:33:58;;;;;;;0.80;0.80;;;28.70;95.50;;;;;;5096040;28;20193;-84
2022/08/25 10:36:37;;;;;;;2.90;1.40;;;28.90;95.20;;;;;;5096266;28;20200;-84
2022/08/25 10:39:04;;;;;;;0.98;0.73;;;29.30;94.60;;;;;;5096239;28;20185;-84
2022/08/25 10:41:42;;;;;;;1.00;0.90;;;29.50;94.50;;;;;;5096101;28;20228;-84
2022/08/25 10:47:35;;;;;;;1.42;1.20;;;29.80;93.50;;;;;;5096111;28;20649;-85
2022/08/25 10:50:09;;;;;;;1.42;1.10;;;30.10;93.00;;;;;;5083005;28;20229;-85
2022/08/25 10:52:44;;;;;;;0.90;0.80;;;30.10;92.20;;;;;;5095850;28;20225;-85
2022/08/25 10:55:24;;;;;;;1.42;1.17;;;30.10;91.80;;;;;;5095997;28;20185;-84
2022/08/25 10:57:57;;;;;;;1.35;0.98;;;29.90;92.00;;;;;;5095552;28;20186;-85
2022/08/25 11:00:30;;;;;;;3.05;1.30;;;29.90;91.50;;;;;;5095702;28;20562;-83
2022/08/25 11:03:18;;;;;;;1.73;1.00;;;30.00;91.10;;;;;;5095706;28;20230;-84
2022/08/25 11:05:49;;;;;;;1.42;1.20;;;30.20;91.10;;;;;;5095711;28;20190;-84
2022/08/25 11:08:30;;;;;;;1.08;0.95;;;30.30;91.30;;;;;;5095548;28;20206;-84
2022/08/25 11:10:59;;;;;;;1.20;1.10;;;30.40;91.10;;;;;;5095594;28;20190;-84
2022/08/25 11:13:37;;;;;;;1.10;1.00;;;30.40;90.70;;;;;;5095563;28;20205;-84
2022/08/25 11:16:11;;;;;;;2.65;0.82;;;30.00;90.80;;;;;;5095547;28;20189;-84
2022/08/25 11:18:45;;;;;;;1.23;0.90;;;29.50;91.30;;;;;;5095532;28;20183;-83
2022/08/25 11:21:17;;;;;;;1.13;0.93;;;29.20;92.00;;;;;;5094755;28;20231;-84
2022/08/25 11:23:49;;;;;;;3.83;1.00;;;28.90;92.10;;;;;;5095381;28;20190;-84
2022/08/25 11:26:28;;;;;;;1.23;1.00;;;28.90;91.80;;;;;;5094989;28;20236;-83
2022/08/25 11:29:03;;;;;;;1.00;1.00;;;28.80;92.30;;;;;;5095571;28;20213;-83
2022/08/25 11:31:30;;;;;;;1.65;1.10;;;28.70;93.10;;;;;;5094896;28;20707;-83
2022/08/25 11:33:59;;;;;;;1.17;0.90;;;28.80;92.40;;;;;;5095226;28;20232;-83
2022/08/25 11:36:30;;;;;;;0.82;0.82;;;29.00;91.60;;;;;;5095111;28;20652;-84
2022/08/25 11:39:10;;;;;;;1.05;1.00;;;29.10;91.30;;;;;;5095376;28;20185;-84
2022/08/25 11:41:50;;;;;;;0.90;0.75;;;28.90;90.60;;;;;;5095082;28;20229;-83
2022/08/25 11:44:39;;;;;;;1.13;1.00;;;28.80;91.40;;;;;;5094966;28;20185;-84
2022/08/25 11:47:32;;;;;;;2.35;1.00;;;28.60;91.60;;;;;;5094889;28;20198;-83
2022/08/25 11:50:03;;;;;;;1.13;1.02;;;28.50;91.60;;;;;;5094809;28;20206;-83
2022/08/25 11:52:48;;;;;;;0.70;0.70;;;28.20;91.70;;;;;;5094750;28;20787;-83
2022/08/25 11:55:18;;;;;;;1.77;0.80;;;28.10;91.60;;;;;;5094726;28;20190;-83
2022/08/25 11:57:48;;;;;;;0.90;0.80;;;27.90;92.00;;;;;;5094771;28;20185;-83
2022/08/25 12:00:38;;;;;;;0.77;0.73;;;27.80;91.70;;;;;;5094724;28;20219;-83
2022/08/25 12:03:38;;;;;;;1.10;1.00;;;27.60;92.20;;;;;;5094597;28;20237;-83
2022/08/25 12:06:20;;;;;;;0.98;0.75;;;27.30;91.80;;;;;;5094185;28;20208;-83
2022/08/25 12:08:54;;;;;;;1.33;0.70;;;27.40;91.60;;;;;;5094471;28;20552;-83
2022/08/25 12:11:44;;;;;;;1.95;0.95;;;27.40;91.30;;;;;;5094176;28;20228;-83
2022/08/25 12:14:17;;;;;;;1.23;0.80;;;27.70;91.10;;;;;;5094457;28;20201;-84
2022/08/25 12:17:04;;;;;;;1.02;0.77;;;27.90;91.20;;;;;;5094350;28;20220;-84
2022/08/25 12:19:58;;;;;;;1.25;0.80;;;28.10;90.80;;;;;;5094203;28;20186;-83
2022/08/25 12:22:57;;;;;;;1.23;0.70;;;28.20;91.00;;;;;;5093998;28;20585;-83
2022/08/25 12:25:52;;;;;;;1.10;0.88;;;28.30;91.00;;;;;;5094004;28;20278;-83
2022/08/25 12:28:39;;;;;;;1.00;0.85;;;28.30;91.30;;;;;;5094131;28;20641;-83
2022/08/25 12:31:17;;;;;;;0.90;0.90;;;28.40;91.60;;;;;;5094410;28;20545;-82
2022/08/25 12:33:58;;;;;;;1.00;0.80;;;28.30;90.90;;;;;;5094005;28;20185;-83
2022/08/25 12:36:30;;;;;;;1.25;0.88;;;28.30;90.80;;;;;;5094130;28;20190;-83
2022/08/25 12:39:18;;;;;;;4.10;1.00;;;28.20;91.10;;;;;;5093670;28;20743;-82
2022/08/25 12:41:55;;;;;;;0.93;0.80;;;28.30;90.90;;;;;;5093874;28;20232;-83
2022/08/25 12:44:40;;;;;;;0.80;0.70;;;28.30;90.00;;;;;;5093924;28;20184;-82
2022/08/25 12:47:13;;;;;;;1.17;0.98;;;28.30;88.70;;;;;;5093869;28;20190;-82
2022/08/25 12:49:40;;;;;;;0.68;0.65;;;28.30;88.70;;;;;;5093422;28;20707;-82
2022/08/25 12:52:12;;;;;;;1.17;1.00;;;28.20;88.80;;;;;;5093657;28;20221;-82
2022/08/25 12:54:47;;;;;;;1.30;0.93;;;28.20;88.40;;;;;;5093725;28;20213;-82
2022/08/25 12:57:38;;;;;;;0.93;0.82;;;28.00;88.50;;;;;;5093765;28;20196;-82
2022/08/25 13:00:15;;;;;;;0.63;0.63;;;28.00;87.60;;;;;;5093669;28;20185;-82
2022/08/25 13:03:08;;;;;;;0.70;0.70;;;28.00;89.00;;;;;;5093574;28;20312;-83
2022/08/25 13:06:10;;;;;;;0.95;0.60;;;27.90;88.90;;;;;;5091309;28;20205;-82
2022/08/25 13:08:50;;;;;;;0.98;0.80;;;27.80;89.00;;;;;;5057399;28;20212;-82
2022/08/25 13:11:24;;;;;;;0.63;0.60;;;27.70;88.50;;;;;;5093551;28;20225;-83
2022/08/25 13:13:57;;;;;;;0.75;0.70;;;27.60;88.10;;;;;;5093534;28;20185;-83
2022/08/25 13:16:26;;;;;;;0.95;0.80;;;27.60;88.30;;;;;;5093529;28;20629;-83
2022/08/25 13:18:57;;;;;;;1.25;0.80;;;27.50;88.40;;;;;;5093460;28;20212;-82
2022/08/25 13:21:30;;;;;;;0.90;0.80;;;27.50;89.30;;;;;;5093445;28;20247;-83
2022/08/25 13:24:00;;;;;;;1.48;1.38;;;27.50;90.10;;;;;;5093472;28;20192;-83